Time;durP1;ratioP1;P1;durP2;ratioP2;P2;SDS_P1;SDS_P2;PMS_P1;PMS_P2;Temp;Humidity;BMP_temperature;BMP_pressure;BME280_temperature;BME280_humidity;BME280_pressure;Samples;Min_cycle;Max_cycle;Signal;HPM_P1;HPM_P2
2023/03/04 00:01:04;;;;;;;39.50;18.37;;;;;;;3.61;59.38;99869.84;4483242;31;20132;-88
2023/03/04 00:03:30;;;;;;;44.35;17.55;;;;;;;3.54;59.38;99862.97;4461605;32;20115;-88
2023/03/04 00:05:55;;;;;;;41.95;17.37;;;;;;;3.70;59.38;99862.09;4480607;31;20095;-88
2023/03/04 00:08:23;;;;;;;40.10;17.55;;;;;;;3.54;59.38;99868.12;4470041;32;20173;-88
2023/03/04 00:10:49;;;;;;;43.22;17.98;;;;;;;3.63;59.38;99870.69;4467286;31;20096;-88
2023/03/04 00:13:15;;;;;;;44.58;18.45;;;;;;;3.67;59.38;99869.81;4485651;31;20476;-89
2023/03/04 00:15:41;;;;;;;39.67;16.27;;;;;;;3.49;59.37;99870.72;4467462;31;21025;-88
2023/03/04 00:18:06;;;;;;;44.55;17.42;;;;;;;3.67;59.38;99862.09;4478014;31;20107;-88
2023/03/04 00:20:32;;;;;;;39.78;17.37;;;;;;;3.82;59.39;99861.22;4473317;32;20146;-88
2023/03/04 00:22:57;;;;;;;40.70;16.12;;;;;;;3.82;59.39;99864.66;4485952;31;20153;-87
2023/03/04 00:25:22;;;;;;;31.90;13.80;;;;;;;3.71;59.39;99858.66;4457546;31;20152;-87
2023/03/04 00:27:48;;;;;;;34.47;13.45;;;;;;;3.60;59.38;99862.97;4485295;32;20203;-90
2023/03/04 00:30:13;;;;;;;26.10;12.63;;;;;;;3.72;59.39;99857.78;4487343;31;20453;-89
2023/03/04 00:32:40;;;;;;;28.70;11.45;;;;;;;3.82;59.39;99851.78;4476500;32;20127;-89
2023/03/04 00:35:08;;;;;;;28.80;11.63;;;;;;;3.79;59.39;99859.50;4475908;31;20492;-88
2023/03/04 00:37:34;;;;;;;27.13;11.90;;;;;;;3.87;59.39;99857.75;4472779;32;20844;-88
2023/03/04 00:39:59;;;;;;;29.40;12.20;;;;;;;3.93;59.40;99857.72;4484863;31;20124;-88
2023/03/04 00:42:25;;;;;;;27.17;12.68;;;;;;;3.80;59.39;99861.22;4476254;32;20143;-88
2023/03/04 00:44:50;;;;;;;24.12;10.75;;;;;;;3.86;59.40;99857.75;4471750;32;20127;-88
2023/03/04 00:47:16;;;;;;;24.23;10.80;;;;;;;3.91;59.40;99859.47;4478623;31;20183;-87
2023/03/04 00:49:41;;;;;;;24.67;9.80;;;;;;;3.92;59.40;99856.00;4462395;31;20093;-88
2023/03/04 00:52:07;;;;;;;28.70;11.45;;;;;;;3.95;59.40;99850.84;4478237;31;20104;-87
2023/03/04 00:54:32;;;;;;;22.95;11.07;;;;;;;3.76;59.39;99841.47;4473311;31;20364;-88
2023/03/04 00:56:58;;;;;;;30.77;10.98;;;;;;;4.07;59.41;99855.13;4487591;31;20198;-88
2023/03/04 00:59:23;;;;;;;29.40;9.57;;;;;;;4.08;59.41;99843.94;4487425;31;20193;-88
2023/03/04 01:01:49;;;;;;;22.73;10.13;;;;;;;4.13;59.41;99839.63;4487126;31;20172;-89
2023/03/04 01:04:14;;;;;;;27.55;10.75;;;;;;;3.88;59.39;99843.16;4471453;31;20146;-88
2023/03/04 01:06:42;;;;;;;27.62;11.05;;;;;;;3.80;59.39;99840.63;4475799;32;20093;-88
2023/03/04 01:09:08;;;;;;;26.25;10.35;;;;;;;3.85;59.40;99844.03;4483874;31;20151;-88
2023/03/04 01:11:33;;;;;;;23.23;9.48;;;;;;;3.95;59.40;99837.97;4495741;31;20152;-86
2023/03/04 01:13:59;;;;;;;27.45;10.15;;;;;;;3.86;59.40;99839.75;4499820;31;20148;-87
2023/03/04 01:16:24;;;;;;;26.15;10.15;;;;;;;3.79;59.39;99840.63;4486088;31;20383;-86
2023/03/04 01:18:49;;;;;;;21.95;9.25;;;;;;;3.60;59.38;99835.53;4484473;31;20442;-86
2023/03/04 01:21:15;;;;;;;33.08;11.70;;;;;;;3.75;59.38;99831.19;4478243;31;20464;-86
2023/03/04 01:23:40;;;;;;;22.45;9.93;;;;;;;3.85;59.40;99830.31;4489146;31;20148;-86
2023/03/04 01:26:06;;;;;;;22.42;9.73;;;;;;;3.75;59.38;99837.19;4477697;31;20131;-86
2023/03/04 01:28:34;;;;;;;23.20;10.35;;;;;;;3.91;59.40;99828.56;4490058;31;20108;-86
2023/03/04 01:31:01;;;;;;;25.58;9.52;;;;;;;3.76;59.39;99833.75;4487612;31;20122;-87
2023/03/04 01:33:26;;;;;;;26.45;11.15;;;;;;;3.80;59.39;99824.31;4484607;31;20096;-88
2023/03/04 01:35:51;;;;;;;24.85;10.68;;;;;;;3.67;59.38;99826.06;4478000;31;20136;-88
2023/03/04 01:38:17;;;;;;;23.77;9.50;;;;;;;3.42;59.37;99819.25;4486049;31;20127;-87
2023/03/04 01:40:42;;;;;;;30.17;10.63;;;;;;;3.60;59.38;99827.81;4471473;32;20148;-87
2023/03/04 01:43:22;;;;;;;23.90;11.32;;;;;;;3.47;59.38;99826.09;4484418;31;20384;-88
2023/03/04 01:45:48;;;;;;;23.83;10.65;;;;;;;3.53;59.38;99817.50;4471912;32;20139;-88
2023/03/04 01:48:13;;;;;;;23.27;10.48;;;;;;;3.62;59.38;99815.78;4485375;31;20439;-88
2023/03/04 01:50:39;;;;;;;22.27;9.48;;;;;;;3.59;59.38;99809.78;4474185;32;20218;-88
2023/03/04 01:53:05;;;;;;;27.35;11.32;;;;;;;3.49;59.38;99811.53;4479246;32;20120;-88
2023/03/04 01:55:30;;;;;;;25.73;11.02;;;;;;;3.18;59.36;99810.72;4480434;31;20092;-88
2023/03/04 01:57:56;;;;;;;26.77;11.15;;;;;;;3.21;59.36;99817.56;4460451;31;20384;-90
2023/03/04 02:00:30;;;;;;;22.55;9.93;;;;;;;3.15;59.35;99813.31;4465884;31;495252;-88
2023/03/04 02:03:01;;;;;;;27.30;10.55;;;;;;;3.16;59.35;99814.16;4471392;32;20476;-88
2023/03/04 02:05:26;;;;;;;23.92;9.93;;;;;;;3.07;59.35;99809.87;4468134;31;20611;-87
2023/03/04 02:07:52;;;;;;;24.35;9.88;;;;;;;2.95;59.35;99809.87;4469152;32;21078;-88
2023/03/04 02:10:17;;;;;;;21.90;8.98;;;;;;;2.92;59.34;99812.47;4467443;31;20138;-88
2023/03/04 02:12:43;;;;;;;22.77;9.45;;;;;;;2.89;59.34;99808.19;4486691;31;20107;-88
2023/03/04 02:15:09;;;;;;;20.17;10.30;;;;;;;3.16;59.35;99801.31;4486901;31;20353;-87
2023/03/04 02:17:34;;;;;;;23.83;9.73;;;;;;;2.95;59.33;99800.47;4485115;31;20092;-88
2023/03/04 02:20:02;;;;;;;21.02;9.32;;;;;;;3.05;59.35;99803.87;4484384;32;20532;-87
2023/03/04 02:22:28;;;;;;;26.92;8.95;;;;;;;2.89;59.34;99795.31;4485506;31;21047;-87
2023/03/04 02:25:09;;;;;;;24.83;9.82;;;;;;;2.94;59.35;99801.31;4484176;32;20139;-88
2023/03/04 02:27:35;;;;;;;23.92;9.40;;;;;;;2.97;59.34;99796.16;4472367;32;20104;-88
2023/03/04 02:30:00;;;;;;;21.80;9.15;;;;;;;2.88;59.34;99796.19;4484203;31;20467;-88
2023/03/04 02:32:25;;;;;;;20.12;9.00;;;;;;;2.82;59.33;99788.44;4471295;32;20104;-88
2023/03/04 02:34:51;;;;;;;23.77;8.98;;;;;;;3.06;59.35;99780.72;4470869;31;20114;-88
2023/03/04 02:37:17;;;;;;;23.30;9.27;;;;;;;2.98;59.34;99782.47;4485165;31;20164;-89
2023/03/04 02:39:43;;;;;;;21.92;8.75;;;;;;;2.88;59.34;99774.75;4458116;31;20134;-89
2023/03/04 02:42:09;;;;;;;24.70;9.30;;;;;;;2.84;59.34;99780.75;4486946;31;20526;-88
2023/03/04 02:44:39;;;;;;;20.92;9.60;;;;;;;2.84;59.34;99773.03;4471049;32;20100;-88
2023/03/04 02:47:06;;;;;;;24.60;9.02;;;;;;;2.84;59.34;99778.16;4463943;31;20099;-88
2023/03/04 02:49:32;;;;;;;22.98;9.13;;;;;;;2.73;59.33;99773.91;4486500;31;20477;-88
2023/03/04 02:52:05;;;;;;;20.23;8.35;;;;;;;2.85;59.33;99767.91;4485440;31;20127;-88
2023/03/04 02:54:31;;;;;;;23.05;8.95;;;;;;;2.84;59.34;99762.75;4481328;31;20087;-88
2023/03/04 02:56:59;;;;;;;24.33;8.32;;;;;;;2.72;59.32;99766.19;4464179;31;20176;-89
2023/03/04 02:59:24;;;;;;;28.85;9.57;;;;;;;2.87;59.33;99755.06;4471294;31;20153;-89
2023/03/04 03:01:50;;;;;;;23.20;8.65;;;;;;;2.83;59.34;99754.19;4471097;32;20108;-88
2023/03/04 03:04:16;;;;;;;23.70;9.48;;;;;;;2.71;59.33;99756.78;4458194;32;20096;-89
2023/03/04 03:06:41;;;;;;;19.58;7.78;;;;;;;2.61;59.32;99753.34;4484378;32;20080;-89
2023/03/04 03:09:07;;;;;;;19.33;8.18;;;;;;;2.48;59.31;99761.91;4483201;31;20120;-89
2023/03/04 03:11:32;;;;;;;23.58;8.50;;;;;;;2.71;59.32;99755.06;4471906;32;20096;-89
2023/03/04 03:13:58;;;;;;;22.35;9.05;;;;;;;2.64;59.33;99753.34;4474670;31;20118;-88
2023/03/04 03:16:23;;;;;;;22.85;9.45;;;;;;;2.76;59.33;99750.75;4486093;32;20132;-89
2023/03/04 03:18:49;;;;;;;26.17;8.10;;;;;;;2.56;59.32;99759.31;4470760;31;20126;-88
2023/03/04 03:21:14;;;;;;;27.40;9.30;;;;;;;2.59;59.32;99749.03;4473435;31;20136;-88
2023/03/04 03:23:39;;;;;;;21.58;8.48;;;;;;;2.51;59.32;99749.06;4483547;31;20163;-89
2023/03/04 03:26:05;;;;;;;22.48;8.73;;;;;;;2.55;59.32;99750.75;4470612;32;20136;-88
2023/03/04 03:28:30;;;;;;;23.30;8.68;;;;;;;2.51;59.32;99743.91;4482362;31;20157;-88
2023/03/04 03:30:56;;;;;;;22.98;7.93;;;;;;;2.64;59.33;99737.94;4486346;31;20151;-88
2023/03/04 03:33:21;;;;;;;22.37;9.15;;;;;;;2.47;59.31;99744.78;4487905;31;20124;-87
2023/03/04 03:35:46;;;;;;;21.98;8.65;;;;;;;2.50;59.31;99738.78;4470912;32;20103;-86
2023/03/04 03:38:12;;;;;;;19.12;8.10;;;;;;;2.62;59.32;99738.78;4457660;31;20445;-86
2023/03/04 03:40:37;;;;;;;19.98;8.68;;;;;;;2.51;59.32;99737.91;4463098;31;20160;-88
2023/03/04 03:43:03;;;;;;;19.60;7.82;;;;;;;2.57;59.31;99732.78;4488313;31;20449;-88
2023/03/04 03:45:28;;;;;;;21.20;7.57;;;;;;;2.55;59.32;99730.22;4457452;32;20088;-87
2023/03/04 03:47:53;;;;;;;18.45;7.37;;;;;;;2.50;59.31;99733.63;4470364;32;20187;-88
2023/03/04 03:50:19;;;;;;;20.37;8.40;;;;;;;2.44;59.32;99729.38;4463035;31;20088;-88
2023/03/04 03:52:44;;;;;;;20.70;7.75;;;;;;;2.32;59.31;99731.91;4483576;32;20100;-89
2023/03/04 03:55:10;;;;;;;17.52;6.90;;;;;;;2.48;59.31;99720.78;4470754;32;20129;-89
2023/03/04 03:57:35;;;;;;;18.87;7.37;;;;;;;2.35;59.30;99724.19;4468081;31;20461;-90
2023/03/04 04:00:00;;;;;;;17.87;7.30;;;;;;;2.47;59.31;99730.22;4472687;32;20141;-89
2023/03/04 04:02:26;;;;;;;18.85;7.55;;;;;;;2.43;59.32;99727.66;4464936;32;20203;-88
2023/03/04 04:04:51;;;;;;;19.55;7.25;;;;;;;2.42;59.30;99728.50;4484603;31;20152;-89
2023/03/04 04:07:17;;;;;;;17.37;6.62;;;;;;;2.63;59.32;99727.66;4485839;31;20229;-88
2023/03/04 04:09:42;;;;;;;18.08;6.37;;;;;;;2.35;59.30;99729.34;4485903;31;20126;-89
2023/03/04 04:12:08;;;;;;;21.87;6.57;;;;;;;2.44;59.32;99730.22;4470103;31;20488;-89
2023/03/04 04:14:33;;;;;;;12.93;5.70;;;;;;;2.49;59.31;99727.66;4485904;31;20088;-89
2023/03/04 04:16:59;;;;;;;18.62;6.80;;;;;;;2.67;59.33;99727.66;4459643;31;20384;-89
2023/03/04 04:19:24;;;;;;;19.58;7.05;;;;;;;2.52;59.32;99729.34;4470270;32;20120;-89
2023/03/04 04:21:50;;;;;;;16.23;6.43;;;;;;;2.45;59.32;99724.22;4480583;31;20079;-90
2023/03/04 04:24:15;;;;;;;16.42;6.25;;;;;;;2.56;59.32;99723.34;4469975;32;20100;-89
2023/03/04 04:26:41;;;;;;;19.45;6.55;;;;;;;2.43;59.32;99722.50;4476148;32;20097;-88
2023/03/04 04:29:06;;;;;;;20.73;7.68;;;;;;;2.58;59.33;99717.34;4470223;32;20147;-88
2023/03/04 04:31:32;;;;;;;25.65;7.15;;;;;;;2.69;59.33;99709.66;4477863;32;20100;-89
2023/03/04 04:33:57;;;;;;;18.37;7.22;;;;;;;2.76;59.33;99706.22;4486644;31;20169;-89
2023/03/04 04:36:23;;;;;;;17.08;7.18;;;;;;;2.75;59.33;99707.06;4471714;32;20177;-90
2023/03/04 04:38:48;;;;;;;20.25;6.90;;;;;;;2.70;59.33;99709.66;4484571;31;20144;-89
2023/03/04 04:41:22;;;;;;;19.50;7.80;;;;;;;2.84;59.33;99706.19;4477112;32;20419;-88
2023/03/04 04:43:47;;;;;;;23.70;9.60;;;;;;;2.69;59.33;99715.66;4469902;32;20149;-87
2023/03/04 04:46:13;;;;;;;18.40;7.37;;;;;;;2.71;59.32;99706.22;4482563;31;20112;-87
2023/03/04 04:48:38;;;;;;;20.23;7.30;;;;;;;2.53;59.32;99715.66;4469792;32;20105;-88
2023/03/04 04:51:04;;;;;;;19.73;7.80;;;;;;;2.50;59.32;99708.81;4466707;31;23849;-88
2023/03/04 04:53:29;;;;;;;24.02;8.25;;;;;;;2.46;59.31;99707.09;4472195;32;20092;-88
2023/03/04 04:55:55;;;;;;;21.30;7.97;;;;;;;2.58;59.33;99701.09;4480009;31;20159;-90
2023/03/04 04:58:20;;;;;;;24.02;8.20;;;;;;;2.67;59.33;99701.94;4456558;32;20251;-88
2023/03/04 05:00:46;;;;;;;18.05;7.85;;;;;;;2.62;59.32;99703.69;4466463;31;20143;-88
2023/03/04 05:03:11;;;;;;;25.98;9.10;;;;;;;2.66;59.33;99699.38;4482381;31;20644;-88
2023/03/04 05:05:36;;;;;;;24.52;9.90;;;;;;;2.66;59.33;99704.53;4482070;32;20426;-89
2023/03/04 05:08:02;;;;;;;25.85;8.82;;;;;;;2.56;59.31;99706.22;4482368;32;20152;-87
2023/03/04 05:10:27;;;;;;;21.58;8.05;;;;;;;2.80;59.34;99702.78;4468890;32;20151;-88
2023/03/04 05:12:53;;;;;;;23.83;8.40;;;;;;;2.81;59.33;99701.91;4479406;32;20128;-88
2023/03/04 05:15:18;;;;;;;24.67;9.77;;;;;;;2.74;59.33;99693.38;4483524;31;20175;-88
2023/03/04 05:17:43;;;;;;;24.73;9.40;;;;;;;2.84;59.34;99706.19;4485823;31;20441;-89
2023/03/04 05:20:09;;;;;;;27.30;9.77;;;;;;;2.77;59.33;99703.63;4487347;31;20910;-84
2023/03/04 05:22:35;;;;;;;25.65;10.13;;;;;;;2.76;59.33;99701.94;4484486;32;20108;-84
2023/03/04 05:25:00;;;;;;;24.80;9.85;;;;;;;2.97;59.34;99693.31;4471332;32;20184;-83
2023/03/04 05:27:26;;;;;;;26.02;10.02;;;;;;;2.96;59.35;99696.75;4484672;32;20108;-84
2023/03/04 05:29:52;;;;;;;24.55;9.20;;;;;;;2.80;59.34;99702.78;4484342;32;20171;-85
2023/03/04 05:32:17;;;;;;;31.92;11.55;;;;;;;2.88;59.34;99701.06;4484562;32;20128;-85
2023/03/04 05:34:42;;;;;;;29.25;10.40;;;;;;;3.08;59.35;99703.59;4478219;32;20172;-85
2023/03/04 05:37:08;;;;;;;23.55;9.88;;;;;;;2.90;59.34;99703.63;4475799;31;20402;-84
2023/03/04 05:39:33;;;;;;;29.65;10.95;;;;;;;2.90;59.34;99701.91;4490604;31;20634;-84
2023/03/04 05:41:59;;;;;;;29.92;11.52;;;;;;;2.90;59.34;99709.63;4485805;31;20389;-85
2023/03/04 05:44:24;;;;;;;38.40;13.02;;;;;;;3.01;59.34;99712.16;4487079;31;20441;-84
2023/03/04 05:46:49;;;;;;;31.35;12.68;;;;;;;2.90;59.34;99708.78;4496889;31;20421;-84
2023/03/04 05:49:15;;;;;;;33.10;11.90;;;;;;;2.93;59.34;99713.91;4478034;32;22166;-85
2023/03/04 05:51:40;;;;;;;31.42;12.73;;;;;;;2.90;59.34;99711.34;4481697;32;20160;-84
2023/03/04 05:54:06;;;;;;;32.63;12.68;;;;;;;3.01;59.34;99707.03;4484157;32;20164;-85
2023/03/04 05:56:32;;;;;;;36.65;13.35;;;;;;;3.06;59.35;99713.88;4484013;32;20163;-84
2023/03/04 05:58:58;;;;;;;37.17;13.95;;;;;;;2.99;59.34;99719.87;4486043;31;20152;-84
2023/03/04 06:01:23;;;;;;;31.20;13.25;;;;;;;3.16;59.34;99717.28;4484310;32;20356;-85
2023/03/04 06:03:49;;;;;;;34.03;11.82;;;;;;;3.22;59.36;99724.97;4486801;31;20145;-84
2023/03/04 06:06:14;;;;;;;27.92;12.88;;;;;;;3.37;59.36;99726.66;4483957;32;20096;-85
2023/03/04 06:08:39;;;;;;;35.63;13.18;;;;;;;3.43;59.37;99724.06;4480355;31;20136;-84
2023/03/04 06:11:05;;;;;;;36.10;14.00;;;;;;;3.57;59.38;99736.88;4484005;31;20457;-83
2023/03/04 06:13:30;;;;;;;32.33;13.27;;;;;;;3.55;59.38;99733.44;4483766;32;20156;-85
2023/03/04 06:15:57;;;;;;;32.28;12.65;;;;;;;3.62;59.38;99732.56;4483684;32;20152;-84
2023/03/04 06:18:22;;;;;;;33.65;13.93;;;;;;;3.74;59.38;99732.50;4469743;32;20092;-83
2023/03/04 06:20:48;;;;;;;37.30;14.27;;;;;;;3.81;59.39;99734.19;4482676;32;20322;-85
2023/03/04 06:23:13;;;;;;;30.62;12.73;;;;;;;3.90;59.39;99743.59;4483450;32;20363;-85
2023/03/04 06:25:39;;;;;;;38.33;14.63;;;;;;;3.86;59.40;99749.63;4482778;32;20118;-84
2023/03/04 06:28:04;;;;;;;36.47;13.30;;;;;;;4.05;59.40;99747.81;4469494;32;20121;-85
2023/03/04 06:30:30;;;;;;;37.65;14.15;;;;;;;4.14;59.41;99755.47;4483109;31;20122;-85
2023/03/04 06:32:55;;;;;;;33.53;14.10;;;;;;;4.27;59.42;99751.97;4485922;31;20144;-85
2023/03/04 06:35:21;;;;;;;37.97;13.50;;;;;;;4.29;59.42;99758.81;4485156;31;20386;-85
2023/03/04 06:37:46;;;;;;;32.35;13.65;;;;;;;4.43;59.43;99758.72;4469572;32;21902;-86
2023/03/04 06:40:12;;;;;;;40.15;13.82;;;;;;;4.37;59.43;99763.06;4479875;32;20179;-86
2023/03/04 06:42:38;;;;;;;36.20;13.73;;;;;;;4.54;59.43;99764.66;4483582;31;20128;-84
2023/03/04 06:45:04;;;;;;;32.80;14.25;;;;;;;4.82;59.45;99759.28;4483638;32;20121;-85
2023/03/04 06:47:30;;;;;;;32.08;14.60;;;;;;;4.83;59.45;99756.69;4484828;32;20155;-85
2023/03/04 06:49:55;;;;;;;29.75;13.55;;;;;;;4.79;59.45;99759.31;4483848;31;20124;-85
2023/03/04 06:52:20;;;;;;;33.17;14.63;;;;;;;4.56;59.43;99760.34;4491328;31;21985;-85
2023/03/04 06:54:46;;;;;;;31.90;14.00;;;;;;;4.67;59.44;99765.41;4483894;32;20140;-85
2023/03/04 06:57:12;;;;;;;40.72;15.95;;;;;;;4.75;59.45;99763.63;4478372;31;20132;-85
2023/03/04 06:59:38;;;;;;;36.58;15.30;;;;;;;4.71;59.44;99763.66;4486631;31;20080;-85
2023/03/04 07:02:03;;;;;;;42.55;17.25;;;;;;;4.44;59.43;99763.00;4491476;31;20153;-85
2023/03/04 07:04:28;;;;;;;40.42;16.33;;;;;;;4.54;59.43;99763.81;4485074;31;20618;-85
2023/03/04 07:06:54;;;;;;;36.13;14.65;;;;;;;4.57;59.44;99769.78;4483656;32;20129;-85
2023/03/04 07:09:19;;;;;;;37.35;15.32;;;;;;;4.70;59.44;99764.53;4483391;32;20100;-86
2023/03/04 07:11:45;;;;;;;41.78;17.30;;;;;;;4.75;59.45;99761.06;4483552;32;20140;-85
2023/03/04 07:14:10;;;;;;;35.65;14.82;;;;;;;4.77;59.44;99761.03;4483697;31;20427;-85
2023/03/04 07:16:36;;;;;;;40.00;16.27;;;;;;;4.89;59.45;99766.09;4483881;32;20099;-85
2023/03/04 07:19:01;;;;;;;42.50;15.50;;;;;;;4.78;59.44;99758.44;4486375;31;20393;-85
2023/03/04 07:21:27;;;;;;;38.78;14.75;;;;;;;4.89;59.45;99759.19;4484737;32;20475;-85
2023/03/04 07:23:52;;;;;;;34.90;15.43;;;;;;;5.06;59.46;99753.03;4484141;31;20134;-85
2023/03/04 07:26:18;;;;;;;35.38;13.98;;;;;;;4.97;59.46;99754.00;4485100;31;20112;-85
2023/03/04 07:28:43;;;;;;;36.35;14.05;;;;;;;4.91;59.45;99751.44;4481231;31;20128;-85
2023/03/04 07:31:19;;;;;;;35.30;14.27;;;;;;;5.00;59.46;99748.81;4483775;32;20149;-85
2023/03/04 07:33:45;;;;;;;38.50;15.30;;;;;;;4.98;59.46;99741.94;4484319;31;20153;-85
2023/03/04 07:36:10;;;;;;;34.55;14.77;;;;;;;4.97;59.46;99735.94;4490980;31;20108;-84
2023/03/04 07:38:36;;;;;;;41.67;16.58;;;;;;;5.04;59.47;99739.31;4485111;31;20096;-85
2023/03/04 07:41:01;;;;;;;44.50;16.70;;;;;;;5.13;59.47;99737.47;4486365;31;20393;-86
2023/03/04 07:43:26;;;;;;;35.22;15.45;;;;;;;5.38;59.48;99734.63;4483824;32;20148;-85
2023/03/04 07:45:56;;;;;;;34.53;16.00;;;;;;;5.29;59.47;99745.91;4485174;31;20420;-85
2023/03/04 07:48:22;;;;;;;35.83;15.98;;;;;;;5.47;59.49;99739.72;4471850;31;20087;-85
2023/03/04 07:50:47;;;;;;;40.10;16.52;;;;;;;5.69;59.50;99742.87;4493341;31;20221;-85
2023/03/04 07:53:13;;;;;;;34.40;14.52;;;;;;;5.86;59.51;99738.34;4482884;32;23584;-84
2023/03/04 07:55:38;;;;;;;36.92;15.90;;;;;;;5.90;59.52;99734.87;4470402;32;20178;-85
2023/03/04 07:58:03;;;;;;;37.50;15.07;;;;;;;6.07;59.52;99732.91;4473168;31;23778;-85
2023/03/04 08:00:29;;;;;;;39.17;16.55;;;;;;;6.12;59.52;99730.25;4486211;31;20140;-85
2023/03/04 08:02:54;;;;;;;32.60;14.82;;;;;;;6.23;59.53;99730.97;4485013;31;20122;-85
2023/03/04 08:05:20;;;;;;;30.40;14.32;;;;;;;6.35;59.55;99735.94;4485006;31;20128;-85
2023/03/04 08:07:45;;;;;;;33.97;13.18;;;;;;;6.44;59.54;99733.25;4484617;31;20159;-84
2023/03/04 08:10:10;;;;;;;33.90;14.65;;;;;;;6.44;59.54;99734.97;4485477;31;20405;-84
2023/03/04 08:12:36;;;;;;;28.33;14.13;;;;;;;6.56;59.54;99737.34;4473099;31;20156;-84
2023/03/04 08:15:02;;;;;;;35.20;12.15;;;;;;;6.68;59.55;99737.19;4491967;31;20443;-85
2023/03/04 08:17:28;;;;;;;36.58;13.77;;;;;;;6.71;59.55;99731.94;4483621;31;20163;-85
2023/03/04 08:19:54;;;;;;;37.10;14.02;;;;;;;6.88;59.57;99730.81;4493251;31;20112;-84
2023/03/04 08:22:19;;;;;;;30.85;14.00;;;;;;;6.92;59.57;99720.38;4482929;32;20149;-85
2023/03/04 08:24:45;;;;;;;31.85;14.23;;;;;;;7.15;59.58;99724.28;4470051;32;20166;-85
2023/03/04 08:27:10;;;;;;;32.10;13.45;;;;;;;7.26;59.59;99728.38;4482750;32;20140;-85
2023/03/04 08:29:36;;;;;;;31.92;13.45;;;;;;;7.43;59.60;99711.66;4481031;31;20100;-86
2023/03/04 08:32:01;;;;;;;31.70;12.52;;;;;;;7.55;59.61;99712.25;4484079;31;20089;-85
2023/03/04 08:34:27;;;;;;;25.80;11.38;;;;;;;7.65;59.61;99716.38;4483128;32;20179;-86
2023/03/04 08:36:52;;;;;;;31.27;12.48;;;;;;;7.62;59.61;99720.78;4483129;32;20139;-85
2023/03/04 08:39:18;;;;;;;26.85;12.32;;;;;;;7.52;59.59;99720.09;4469943;32;20096;-86
2023/03/04 08:41:43;;;;;;;26.02;12.40;;;;;;;7.85;59.62;99720.28;4484351;31;20478;-86
2023/03/04 08:44:09;;;;;;;28.25;12.40;;;;;;;8.12;59.63;99718.84;4483125;32;20084;-86
2023/03/04 08:46:35;;;;;;;25.40;11.18;;;;;;;8.23;59.64;99711.66;4482840;32;20084;-86
2023/03/04 08:49:01;;;;;;;23.87;9.45;;;;;;;8.27;59.64;99710.69;4482967;32;20093;-86
2023/03/04 08:51:26;;;;;;;19.05;8.55;;;;;;;8.29;59.65;99709.78;4470365;32;20198;-86
2023/03/04 08:53:52;;;;;;;22.60;10.43;;;;;;;8.16;59.64;99705.75;4484627;32;20130;-85
2023/03/04 08:56:17;;;;;;;25.33;11.75;;;;;;;8.38;59.65;99702.69;4471844;31;20153;-86
2023/03/04 08:58:43;;;;;;;25.35;10.63;;;;;;;8.63;59.66;99701.22;4487402;31;20156;-86
2023/03/04 09:01:09;;;;;;;23.62;10.25;;;;;;;8.72;59.67;99707.91;4484353;32;20156;-86
2023/03/04 09:03:34;;;;;;;27.52;11.90;;;;;;;8.60;59.67;99701.28;4487468;31;20088;-85
2023/03/04 09:06:01;;;;;;;24.00;10.77;;;;;;;8.67;59.67;99691.59;4474158;31;20099;-86
2023/03/04 09:08:26;;;;;;;26.92;10.75;;;;;;;8.95;59.68;99699.53;4471546;32;20469;-86
2023/03/04 09:10:52;;;;;;;24.00;10.70;;;;;;;9.09;59.69;99694.84;4484641;32;20163;-86
2023/03/04 09:13:17;;;;;;;25.30;10.30;;;;;;;9.06;59.69;99690.59;4464126;31;20088;-86
2023/03/04 09:15:44;;;;;;;26.20;10.80;;;;;;;9.07;59.69;99687.09;4484416;31;20092;-86
2023/03/04 09:18:10;;;;;;;22.52;10.43;;;;;;;9.21;59.70;99690.16;4484564;32;20101;-85
2023/03/04 09:20:35;;;;;;;22.62;10.55;;;;;;;9.34;59.71;99684.62;4496156;31;20504;-85
2023/03/04 09:23:00;;;;;;;25.88;11.63;;;;;;;9.44;59.71;99680.87;4484268;32;20148;-86
2023/03/04 09:25:26;;;;;;;26.67;11.30;;;;;;;9.43;59.71;99680.00;4482160;31;20103;-86
2023/03/04 09:27:51;;;;;;;28.60;11.18;;;;;;;9.42;59.72;99680.06;4484354;32;20416;-86
2023/03/04 09:30:17;;;;;;;27.15;11.05;;;;;;;9.47;59.71;99683.41;4485736;31;20183;-86
2023/03/04 09:32:42;;;;;;;27.92;11.30;;;;;;;9.71;59.72;99677.50;4485868;31;20118;-86
2023/03/04 09:35:08;;;;;;;29.00;13.43;;;;;;;9.75;59.73;99676.50;4481463;31;20433;-86
2023/03/04 09:37:34;;;;;;;23.45;11.57;;;;;;;9.84;59.73;99676.22;4487329;31;20158;-86
2023/03/04 09:39:59;;;;;;;27.17;11.93;;;;;;;9.84;59.73;99675.38;4471284;31;20139;-86
2023/03/04 09:42:37;;;;;;;26.48;12.73;;;;;;;9.72;59.73;99680.94;4484590;32;20159;-86
2023/03/04 09:45:04;;;;;;;26.27;12.43;;;;;;;9.74;59.73;99669.59;4484673;31;20400;-85
2023/03/04 09:47:29;;;;;;;28.70;13.10;;;;;;;9.98;59.74;99665.41;4487084;31;20463;-86
2023/03/04 09:50:00;;;;;;;25.05;12.20;;;;;;;10.02;59.75;99671.34;4486732;31;20109;-86
2023/03/04 09:52:44;;;;;;;27.67;11.45;;;;;;;10.27;59.75;99659.31;4471458;32;20155;-85
2023/03/04 09:55:17;;;;;;;26.05;11.98;;;;;;;10.20;59.75;99657.78;4494872;31;20107;-86
2023/03/04 09:58:33;;;;;;;25.52;11.77;;;;;;;10.32;59.76;99659.16;4484456;32;20161;-85
2023/03/04 10:01:03;;;;;;;26.73;12.25;;;;;;;10.27;59.75;99661.91;4412410;32;20106;-86
2023/03/04 10:03:57;;;;;;;27.00;12.17;;;;;;;10.41;59.77;99646.72;4468870;31;20115;-85
2023/03/04 10:06:22;;;;;;;29.87;14.50;;;;;;;10.57;59.77;99644.44;4486399;31;20172;-85
2023/03/04 10:09:01;;;;;;;26.58;12.75;;;;;;;10.86;59.79;99639.97;4490443;31;20408;-86
2023/03/04 10:11:38;;;;;;;27.25;12.15;;;;;;;11.01;59.80;99639.44;4484458;31;20104;-86
2023/03/04 10:14:22;;;;;;;27.33;12.32;;;;;;;10.91;59.78;99635.47;4485590;31;20101;-86
2023/03/04 10:16:52;;;;;;;30.55;13.40;;;;;;;10.97;59.79;99630.91;4491168;31;20100;-86
2023/03/04 10:19:35;;;;;;;28.95;12.07;;;;;;;10.79;59.78;99641.09;4485710;31;20160;-85
2023/03/04 10:22:00;;;;;;;33.03;14.73;;;;;;;10.79;59.79;99630.69;4491763;31;20101;-85
2023/03/04 10:24:27;;;;;;;28.45;12.95;;;;;;;10.88;59.79;99630.34;4484004;32;20164;-86
2023/03/04 10:27:03;;;;;;;30.08;13.95;;;;;;;11.07;59.80;99637.47;4466752;31;20084;-86
2023/03/04 10:29:29;;;;;;;28.48;13.10;;;;;;;11.14;59.81;99625.09;4486200;32;20130;-85
2023/03/04 10:31:55;;;;;;;25.05;12.55;;;;;;;11.20;59.80;99627.47;4483978;31;20167;-86
2023/03/04 10:34:21;;;;;;;27.02;11.85;;;;;;;11.24;59.81;99613.41;4484051;32;20509;-86
2023/03/04 10:36:54;;;;;;;28.05;12.70;;;;;;;11.43;59.82;99604.94;4483806;31;20100;-86
2023/03/04 10:39:30;;;;;;;30.65;13.25;;;;;;;11.37;59.82;99599.03;4486601;31;20104;-86
2023/03/04 10:42:04;;;;;;;27.30;13.20;;;;;;;11.31;59.82;99596.63;4483953;32;20101;-85
2023/03/04 10:44:30;;;;;;;30.50;13.27;;;;;;;11.46;59.83;99594.38;4481149;31;20106;-85
2023/03/04 10:46:56;;;;;;;28.75;11.95;;;;;;;11.49;59.83;99581.22;4485370;31;20076;-86
2023/03/04 10:49:23;;;;;;;29.02;13.07;;;;;;;11.65;59.84;99587.56;4486685;31;20126;-86
2023/03/04 10:51:50;;;;;;;25.05;12.90;;;;;;;11.73;59.84;99582.87;4495680;31;20441;-85
2023/03/04 10:55:01;;;;;;;31.55;13.57;;;;;;;11.84;59.85;99583.34;4485378;31;20119;-86
2023/03/04 10:57:40;;;;;;;25.48;13.25;;;;;;;12.04;59.85;99581.69;4482381;31;20080;-86
2023/03/04 11:00:17;;;;;;;28.33;12.43;;;;;;;12.11;59.86;99575.31;4487062;31;20127;-86
2023/03/04 11:02:47;;;;;;;24.98;12.57;;;;;;;11.94;59.85;99578.59;4487615;31;20154;-85
2023/03/04 11:05:20;;;;;;;27.98;13.40;;;;;;;11.94;59.85;99571.63;4483986;32;20127;-86
2023/03/04 11:07:52;;;;;;;26.50;13.02;;;;;;;11.97;59.86;99571.50;4483807;32;20449;-86
2023/03/04 11:10:19;;;;;;;27.25;12.63;;;;;;;11.91;59.85;99574.37;4480921;31;20565;-86
2023/03/04 11:12:57;;;;;;;25.88;12.52;;;;;;;12.02;59.85;99565.25;4484202;31;20119;-86
2023/03/04 11:15:26;;;;;;;26.95;12.43;;;;;;;12.19;59.86;99552.34;4483132;31;20103;-85
2023/03/04 11:18:03;;;;;;;27.15;13.35;;;;;;;12.19;59.86;99549.75;4461620;31;20088;-86
2023/03/04 11:20:38;;;;;;;25.52;12.13;;;;;;;12.39;59.87;99547.16;4481196;31;20949;-85
2023/03/04 11:23:08;;;;;;;26.35;12.50;;;;;;;12.40;59.87;99543.63;4471676;32;20126;-86
2023/03/04 11:25:35;;;;;;;25.92;12.75;;;;;;;12.73;59.90;99543.06;4481576;31;20080;-86